Startpagina
METAR-TAF:

METAR-TAF

Vliegvelden :

Aeropuerto Internacional de Maiquetía Simón Bolívar

Caracas, Venezuela

breedte: 10-36N, lengte: 066-59W, hoogte: 43 m

Actueel weer

Dit bericht is 1 uur en het 48 minuten geleden gemaakt, om 21:00 UTC
Wind 4 kt uit het oosten
Temperatuur 28°C
Vochtigheid 66%
Druk
Zicht 10 km of meer
lichte motregen

METAR: SVMI 172100Z 09004KT 9999 BNK016 -DZ 28/21 1012Q

Tijdstip: 18:48 (22:48 UTC)

Verwachting

Dit bericht is 6 uur en het 48 minuten geleden gemaakt, om 16:00 UTC
Verwachting geldig van 17 om 18 UTC tot 18 om 18 UTC
Wind 6 kt uit het oosten
Zicht 10 km of meer
Verspreide wolken op 1600 ft
Tijdelijke
van 17 om 19 UTC tot 17 om 23 UTC
Wind 8 kt uit het oosten
Zicht: 9000 m
Gebroken wolken op 1300 ft
motregen

TAF: SVMI 171600Z 1718/1818 09006KT 9999 SCT016 TX33/1800Z TN24/0800Z TEMPO 1719/1723 08008KT 9000 DZ BKN013

Waarnemingen en weersverwachtingen van meer dan 4000 vliegvelden (METAR en TAF).

De beschikbare stations zijn de gele en rode punten op de kaart.

Ga met uw muis naar het station om de naam te zien.

Klik dan om waarnemingen en weersverwachtingen te zien.

kaart wijzigen: klik op de groene knoppen met een zwart kruis om in te zoomen, op de groene knop met een streepje om uit te zoomen of op de groene pijlen voor aangrenzende kaarten.


METAR-TAF: